METAR AND TAF INFORMATION
METAR FOR LGKL
ADDS - METARS form results

(1438 UTC 19 December 2018)
Data provider http://aviationweather.gov/metar/data/
 
METAR text: LGKL 191420Z 01004KT 9999 FEW025 15/04 Q1020
Conditions at: LGKL (KALAMATA (HEL-AF, GR) observed 1420 UTC 19 December 2018
Temperature: 15.0°C (59°F)
Dewpoint: 4.0°C (39°F) [RH = 48%]
Pressure (altimeter): 30.12 inches Hg (1020.0 mb)
Winds: from the N (10 degrees) at 5 MPH (4 knots; 2.1 m/s)
Visibility: 6 or more miles (10+ km)
Ceiling: at least 12,000 feet AGL
Clouds: few clouds at 2500 feet AGL
Weather: no significant weather observed at this time

METAR text: LGKL 191350Z 02005KT 9999 FEW025 16/03 Q1020
Conditions at: LGKL (KALAMATA (HEL-AF, GR) observed 1350 UTC 19 December 2018
Temperature: 16.0°C (61°F)
Dewpoint: 3.0°C (37°F) [RH = 42%]
Pressure (altimeter): 30.12 inches Hg (1020.0 mb)
Winds: from the NNE (20 degrees) at 6 MPH (5 knots; 2.6 m/s)
Visibility: 6 or more miles (10+ km)
Ceiling: at least 12,000 feet AGL
Clouds: few clouds at 2500 feet AGL
Weather: no significant weather observed at this time

Forecast for: LGKL (KALAMATA (HEL-AF, GR)
Text: TAF LGKL 191400Z 1915/1924 35006KT 9999 FEW025
Forecast period: 1500 UTC 19 December 2018 to 0000 UTC 20 December 2018
Forecast type: FROM: standard forecast or significant change
Winds: from the N (350 degrees) at 7 MPH (6 knots; 3.1 m/s)
Visibility: 6 or more miles 10+ km)
Ceiling: at least 12,000 feet AGL
Clouds: few clouds at 2500 feet AGL
Weather: no significant weather forecast for this period

 AIRPORT MAP

 RUNWAY INFORMATION
Runway 17R Runway length 9260 ft Runway width 148 ft
Runway elevation 26 ft Runway displaced threshold 240 ft Runway heading 169
Runway 35L Runway length 9260 ft Runway width 148 ft
Runway elevation 16 ft Runway displaced threshold 250 ft Runway heading 349

 AIRPORT FREQUENCIES
Type A/G Name RDO Frequency 563.7 MHZ
Type APP Name APP Frequency 120.75 MHZ
Type TWR Name TWR Frequency 120.75 MHZ

 AIRPORT NEAR NAVIGATION AIDS
Type VOR-DME Name Kalamata Frequency 112600 KHZ
Type TACAN Name Kalamata Frequency 115200 KHZ
Type NDB Name Kalamata Frequency 348 KHZ



Air Greece virtual AIrline - All rights reserved 2018 - Powered by Virtual Airlines Manager [v2.6.2]